sensor_id;sensor_type;location;lat;lon;timestamp;pressure;altitude;pressure_sealevel;temperature;humidity
82870;BME280;72645;47.136;15.420;2023-11-21T00:02:06;96395.08;;;7.29;65.92
82870;BME280;72645;47.136;15.420;2023-11-21T00:04:37;96390.54;;;7.29;66.01
82870;BME280;72645;47.136;15.420;2023-11-21T00:07:08;96393.11;;;7.30;65.74
82870;BME280;72645;47.136;15.420;2023-11-21T00:09:39;96395.31;;;7.31;65.81
82870;BME280;72645;47.136;15.420;2023-11-21T00:12:10;96391.12;;;7.33;66.02
82870;BME280;72645;47.136;15.420;2023-11-21T00:14:43;96389.14;;;7.36;65.92
82870;BME280;72645;47.136;15.420;2023-11-21T00:17:14;96385.23;;;7.39;65.91
82870;BME280;72645;47.136;15.420;2023-11-21T00:19:45;96386.80;;;7.45;65.66
82870;BME280;72645;47.136;15.420;2023-11-21T00:22:15;96393.04;;;7.51;65.72
82870;BME280;72645;47.136;15.420;2023-11-21T00:24:46;96395.43;;;7.58;65.43
82870;BME280;72645;47.136;15.420;2023-11-21T00:27:17;96396.34;;;7.59;65.47
82870;BME280;72645;47.136;15.420;2023-11-21T00:29:48;96397.49;;;7.60;65.43
82870;BME280;72645;47.136;15.420;2023-11-21T00:32:18;96396.63;;;7.54;65.63
82870;BME280;72645;47.136;15.420;2023-11-21T00:34:49;96395.98;;;7.45;65.72
82870;BME280;72645;47.136;15.420;2023-11-21T00:37:20;96399.14;;;7.43;65.76
82870;BME280;72645;47.136;15.420;2023-11-21T00:39:51;96403.82;;;7.41;65.91
82870;BME280;72645;47.136;15.420;2023-11-21T00:42:21;96405.20;;;7.37;65.66
82870;BME280;72645;47.136;15.420;2023-11-21T00:44:52;96405.27;;;7.34;65.77
82870;BME280;72645;47.136;15.420;2023-11-21T00:47:23;96404.27;;;7.32;65.93
82870;BME280;72645;47.136;15.420;2023-11-21T00:49:54;96400.75;;;7.30;65.94
82870;BME280;72645;47.136;15.420;2023-11-21T00:52:26;96404.90;;;7.31;66.15
82870;BME280;72645;47.136;15.420;2023-11-21T00:54:57;96412.25;;;7.32;65.96
82870;BME280;72645;47.136;15.420;2023-11-21T00:57:30;96415.86;;;7.35;66.04
82870;BME280;72645;47.136;15.420;2023-11-21T01:00:00;96420.50;;;7.38;66.09
82870;BME280;72645;47.136;15.420;2023-11-21T01:02:36;96417.14;;;7.42;65.93
82870;BME280;72645;47.136;15.420;2023-11-21T01:05:08;96415.38;;;7.48;65.96
82870;BME280;72645;47.136;15.420;2023-11-21T01:07:38;96411.35;;;7.51;65.84
82870;BME280;72645;47.136;15.420;2023-11-21T01:10:10;96405.48;;;7.48;65.84
82870;BME280;72645;47.136;15.420;2023-11-21T01:12:41;96405.29;;;7.47;66.02
82870;BME280;72645;47.136;15.420;2023-11-21T01:15:12;96398.96;;;7.47;66.03
82870;BME280;72645;47.136;15.420;2023-11-21T01:17:43;96391.63;;;7.43;66.08
82870;BME280;72645;47.136;15.420;2023-11-21T01:20:14;96389.13;;;7.40;66.13
82870;BME280;72645;47.136;15.420;2023-11-21T01:22:45;96387.11;;;7.37;66.20
82870;BME280;72645;47.136;15.420;2023-11-21T01:25:18;96382.70;;;7.34;66.24
82870;BME280;72645;47.136;15.420;2023-11-21T01:27:50;96377.52;;;7.29;66.36
82870;BME280;72645;47.136;15.420;2023-11-21T01:30:21;96377.25;;;7.26;66.51
82870;BME280;72645;47.136;15.420;2023-11-21T01:32:52;96376.02;;;7.24;66.38
82870;BME280;72645;47.136;15.420;2023-11-21T01:35:23;96372.80;;;7.23;66.39
82870;BME280;72645;47.136;15.420;2023-11-21T01:37:53;96368.56;;;7.26;66.38
82870;BME280;72645;47.136;15.420;2023-11-21T01:40:24;96368.18;;;7.32;66.14
82870;BME280;72645;47.136;15.420;2023-11-21T01:42:55;96373.38;;;7.39;66.32
82870;BME280;72645;47.136;15.420;2023-11-21T01:45:26;96369.22;;;7.45;66.10
82870;BME280;72645;47.136;15.420;2023-11-21T01:47:58;96366.72;;;7.51;65.70
82870;BME280;72645;47.136;15.420;2023-11-21T01:50:30;96365.44;;;7.54;66.04
82870;BME280;72645;47.136;15.420;2023-11-21T01:53:01;96368.55;;;7.56;65.99
82870;BME280;72645;47.136;15.420;2023-11-21T01:55:33;96365.29;;;7.58;66.09
82870;BME280;72645;47.136;15.420;2023-11-21T01:58:04;96368.11;;;7.55;66.05
82870;BME280;72645;47.136;15.420;2023-11-21T02:00:36;96372.23;;;7.50;65.85
82870;BME280;72645;47.136;15.420;2023-11-21T02:03:07;96373.40;;;7.45;66.05
82870;BME280;72645;47.136;15.420;2023-11-21T02:05:40;96370.21;;;7.38;66.07
82870;BME280;72645;47.136;15.420;2023-11-21T02:08:10;96373.85;;;7.34;66.20
82870;BME280;72645;47.136;15.420;2023-11-21T02:10:41;96368.20;;;7.30;66.49
82870;BME280;72645;47.136;15.420;2023-11-21T02:13:12;96364.89;;;7.28;66.48
82870;BME280;72645;47.136;15.420;2023-11-21T02:15:43;96363.23;;;7.27;66.55
82870;BME280;72645;47.136;15.420;2023-11-21T02:18:14;96362.55;;;7.27;66.44
82870;BME280;72645;47.136;15.420;2023-11-21T02:20:45;96365.33;;;7.29;66.51
82870;BME280;72645;47.136;15.420;2023-11-21T02:23:16;96362.93;;;7.28;66.71
82870;BME280;72645;47.136;15.420;2023-11-21T02:25:47;96358.28;;;7.28;66.65
82870;BME280;72645;47.136;15.420;2023-11-21T02:28:18;96364.05;;;7.26;66.75
82870;BME280;72645;47.136;15.420;2023-11-21T02:30:55;96358.50;;;7.21;66.80
82870;BME280;72645;47.136;15.420;2023-11-21T02:33:27;96353.33;;;7.19;66.86
82870;BME280;72645;47.136;15.420;2023-11-21T02:35:58;96352.05;;;7.17;66.81
82870;BME280;72645;47.136;15.420;2023-11-21T02:38:29;96342.77;;;7.14;67.12
82870;BME280;72645;47.136;15.420;2023-11-21T02:41:00;96344.00;;;7.12;67.40
82870;BME280;72645;47.136;15.420;2023-11-21T02:43:31;96344.02;;;7.14;67.35
82870;BME280;72645;47.136;15.420;2023-11-21T02:46:01;96343.48;;;7.16;67.43
82870;BME280;72645;47.136;15.420;2023-11-21T02:48:32;96342.15;;;7.15;67.46
82870;BME280;72645;47.136;15.420;2023-11-21T02:51:03;96343.53;;;7.15;67.53
82870;BME280;72645;47.136;15.420;2023-11-21T02:53:34;96347.27;;;7.14;67.56
82870;BME280;72645;47.136;15.420;2023-11-21T02:56:05;96349.55;;;7.14;67.74
82870;BME280;72645;47.136;15.420;2023-11-21T02:58:36;96351.10;;;7.18;67.79
82870;BME280;72645;47.136;15.420;2023-11-21T03:01:07;96354.56;;;7.25;67.44
82870;BME280;72645;47.136;15.420;2023-11-21T03:03:38;96359.52;;;7.34;67.39
82870;BME280;72645;47.136;15.420;2023-11-21T03:06:10;96360.08;;;7.42;67.44
82870;BME280;72645;47.136;15.420;2023-11-21T03:08:40;96365.42;;;7.46;67.32
82870;BME280;72645;47.136;15.420;2023-11-21T03:11:11;96360.39;;;7.46;67.32
82870;BME280;72645;47.136;15.420;2023-11-21T03:13:43;96359.41;;;7.45;67.24
82870;BME280;72645;47.136;15.420;2023-11-21T03:16:15;96361.08;;;7.44;67.57
82870;BME280;72645;47.136;15.420;2023-11-21T03:18:46;96361.75;;;7.42;67.53
82870;BME280;72645;47.136;15.420;2023-11-21T03:21:17;96365.88;;;7.43;67.55
82870;BME280;72645;47.136;15.420;2023-11-21T03:23:48;96364.47;;;7.39;67.93
82870;BME280;72645;47.136;15.420;2023-11-21T03:26:19;96367.46;;;7.33;68.23
82870;BME280;72645;47.136;15.420;2023-11-21T03:28:50;96364.25;;;7.25;68.32
82870;BME280;72645;47.136;15.420;2023-11-21T03:31:23;96364.70;;;7.18;68.77
82870;BME280;72645;47.136;15.420;2023-11-21T03:33:53;96367.95;;;7.17;68.77
82870;BME280;72645;47.136;15.420;2023-11-21T03:36:24;96376.90;;;7.22;68.95
82870;BME280;72645;47.136;15.420;2023-11-21T03:38:55;96380.23;;;7.28;68.90
82870;BME280;72645;47.136;15.420;2023-11-21T03:41:26;96377.33;;;7.34;69.01
82870;BME280;72645;47.136;15.420;2023-11-21T03:43:57;96374.08;;;7.35;69.38
82870;BME280;72645;47.136;15.420;2023-11-21T03:46:28;96374.70;;;7.36;69.28
82870;BME280;72645;47.136;15.420;2023-11-21T03:48:59;96371.91;;;7.38;69.27
82870;BME280;72645;47.136;15.420;2023-11-21T03:51:29;96373.29;;;7.44;69.34
82870;BME280;72645;47.136;15.420;2023-11-21T03:54:00;96375.08;;;7.47;69.43
82870;BME280;72645;47.136;15.420;2023-11-21T03:56:31;96376.47;;;7.49;69.37
82870;BME280;72645;47.136;15.420;2023-11-21T03:59:01;96383.48;;;7.49;69.32
82870;BME280;72645;47.136;15.420;2023-11-21T04:01:33;96382.85;;;7.48;69.44
82870;BME280;72645;47.136;15.420;2023-11-21T04:04:04;96381.64;;;7.48;69.53
82870;BME280;72645;47.136;15.420;2023-11-21T04:06:35;96385.39;;;7.51;69.49
82870;BME280;72645;47.136;15.420;2023-11-21T04:09:07;96387.71;;;7.56;69.31
82870;BME280;72645;47.136;15.420;2023-11-21T04:11:37;96389.11;;;7.62;69.49
82870;BME280;72645;47.136;15.420;2023-11-21T04:14:08;96384.63;;;7.68;69.26
82870;BME280;72645;47.136;15.420;2023-11-21T04:16:39;96382.96;;;7.72;69.17
82870;BME280;72645;47.136;15.420;2023-11-21T04:19:11;96383.17;;;7.78;69.14
82870;BME280;72645;47.136;15.420;2023-11-21T04:21:44;96384.61;;;7.81;69.28
82870;BME280;72645;47.136;15.420;2023-11-21T04:24:15;96384.04;;;7.82;69.07
82870;BME280;72645;47.136;15.420;2023-11-21T04:26:46;96386.65;;;7.82;69.25
82870;BME280;72645;47.136;15.420;2023-11-21T04:29:17;96387.52;;;7.78;69.39
82870;BME280;72645;47.136;15.420;2023-11-21T04:31:48;96386.54;;;7.71;69.20
82870;BME280;72645;47.136;15.420;2023-11-21T04:34:19;96379.33;;;7.64;69.63
82870;BME280;72645;47.136;15.420;2023-11-21T04:36:50;96373.58;;;7.56;69.83
82870;BME280;72645;47.136;15.420;2023-11-21T04:39:21;96373.09;;;7.48;70.10
82870;BME280;72645;47.136;15.420;2023-11-21T04:41:52;96369.13;;;7.46;70.02
82870;BME280;72645;47.136;15.420;2023-11-21T04:44:22;96369.90;;;7.49;69.99
82870;BME280;72645;47.136;15.420;2023-11-21T04:46:53;96369.66;;;7.53;69.96
82870;BME280;72645;47.136;15.420;2023-11-21T04:49:25;96373.13;;;7.58;69.85
82870;BME280;72645;47.136;15.420;2023-11-21T04:51:56;96378.80;;;7.61;69.94
82870;BME280;72645;47.136;15.420;2023-11-21T04:54:26;96380.85;;;7.59;69.70
82870;BME280;72645;47.136;15.420;2023-11-21T04:56:57;96380.63;;;7.54;69.84
82870;BME280;72645;47.136;15.420;2023-11-21T04:59:30;96378.48;;;7.44;70.20
82870;BME280;72645;47.136;15.420;2023-11-21T05:02:00;96383.30;;;7.39;70.30
82870;BME280;72645;47.136;15.420;2023-11-21T05:04:31;96389.17;;;7.40;70.37
82870;BME280;72645;47.136;15.420;2023-11-21T05:07:02;96392.55;;;7.39;70.67
82870;BME280;72645;47.136;15.420;2023-11-21T05:09:33;96389.72;;;7.39;70.69
82870;BME280;72645;47.136;15.420;2023-11-21T05:12:05;96390.13;;;7.39;70.76
82870;BME280;72645;47.136;15.420;2023-11-21T05:14:36;96390.23;;;7.41;70.79
82870;BME280;72645;47.136;15.420;2023-11-21T05:17:07;96390.56;;;7.47;70.20
82870;BME280;72645;47.136;15.420;2023-11-21T05:19:38;96391.27;;;7.56;70.50
82870;BME280;72645;47.136;15.420;2023-11-21T05:22:09;96396.92;;;7.59;70.71
82870;BME280;72645;47.136;15.420;2023-11-21T05:24:41;96398.73;;;7.54;70.72
82870;BME280;72645;47.136;15.420;2023-11-21T05:27:12;96396.40;;;7.47;70.97
82870;BME280;72645;47.136;15.420;2023-11-21T05:29:43;96394.52;;;7.42;70.82
82870;BME280;72645;47.136;15.420;2023-11-21T05:32:14;96396.55;;;7.39;70.99
82870;BME280;72645;47.136;15.420;2023-11-21T05:34:46;96401.71;;;7.40;71.06
82870;BME280;72645;47.136;15.420;2023-11-21T05:37:17;96401.16;;;7.42;71.26
82870;BME280;72645;47.136;15.420;2023-11-21T05:39:48;96400.11;;;7.44;71.13
82870;BME280;72645;47.136;15.420;2023-11-21T05:42:19;96403.91;;;7.48;71.01
82870;BME280;72645;47.136;15.420;2023-11-21T05:44:50;96404.29;;;7.54;71.04
82870;BME280;72645;47.136;15.420;2023-11-21T05:47:21;96411.35;;;7.59;71.03
82870;BME280;72645;47.136;15.420;2023-11-21T05:49:52;96414.93;;;7.64;70.81
82870;BME280;72645;47.136;15.420;2023-11-21T05:52:23;96414.19;;;7.66;71.04
82870;BME280;72645;47.136;15.420;2023-11-21T05:54:54;96414.63;;;7.65;70.93
82870;BME280;72645;47.136;15.420;2023-11-21T05:57:24;96420.46;;;7.68;71.13
82870;BME280;72645;47.136;15.420;2023-11-21T05:59:55;96417.48;;;7.70;70.89
82870;BME280;72645;47.136;15.420;2023-11-21T06:02:26;96424.53;;;7.72;70.85
82870;BME280;72645;47.136;15.420;2023-11-21T06:04:56;96431.36;;;7.73;71.75
82870;BME280;72645;47.136;15.420;2023-11-21T06:07:27;96433.42;;;7.75;72.03
82870;BME280;72645;47.136;15.420;2023-11-21T06:10:02;96439.02;;;7.81;71.24
82870;BME280;72645;47.136;15.420;2023-11-21T06:12:36;96445.40;;;7.82;70.88
82870;BME280;72645;47.136;15.420;2023-11-21T06:15:09;96441.00;;;7.84;70.63
82870;BME280;72645;47.136;15.420;2023-11-21T06:17:43;96433.56;;;7.90;70.47
82870;BME280;72645;47.136;15.420;2023-11-21T06:20:15;96444.16;;;7.98;70.37
82870;BME280;72645;47.136;15.420;2023-11-21T06:22:48;96445.66;;;8.03;70.41
82870;BME280;72645;47.136;15.420;2023-11-21T06:25:20;96448.85;;;8.02;70.52
82870;BME280;72645;47.136;15.420;2023-11-21T06:27:51;96449.05;;;7.94;70.57
82870;BME280;72645;47.136;15.420;2023-11-21T06:30:23;96445.77;;;7.83;70.76
82870;BME280;72645;47.136;15.420;2023-11-21T06:32:54;96448.36;;;7.76;70.81
82870;BME280;72645;47.136;15.420;2023-11-21T06:35:25;96453.78;;;7.74;70.98
82870;BME280;72645;47.136;15.420;2023-11-21T06:37:59;96456.52;;;7.72;71.10
82870;BME280;72645;47.136;15.420;2023-11-21T06:40:30;96453.59;;;7.74;71.12
82870;BME280;72645;47.136;15.420;2023-11-21T06:43:03;96456.48;;;7.80;70.81
82870;BME280;72645;47.136;15.420;2023-11-21T06:45:34;96456.61;;;7.87;70.90
82870;BME280;72645;47.136;15.420;2023-11-21T06:48:05;96458.84;;;7.93;70.85
82870;BME280;72645;47.136;15.420;2023-11-21T06:50:36;96461.33;;;7.97;70.73
82870;BME280;72645;47.136;15.420;2023-11-21T06:53:07;96466.59;;;8.00;70.63
82870;BME280;72645;47.136;15.420;2023-11-21T06:55:39;96467.23;;;8.03;70.68
82870;BME280;72645;47.136;15.420;2023-11-21T06:58:10;96471.88;;;8.04;70.75
82870;BME280;72645;47.136;15.420;2023-11-21T07:00:41;96475.75;;;8.03;70.83
82870;BME280;72645;47.136;15.420;2023-11-21T07:03:16;96476.08;;;7.96;71.10
82870;BME280;72645;47.136;15.420;2023-11-21T07:05:48;96476.59;;;7.86;71.32
82870;BME280;72645;47.136;15.420;2023-11-21T07:08:19;96477.56;;;7.77;71.43
82870;BME280;72645;47.136;15.420;2023-11-21T07:10:50;96478.04;;;7.71;71.62
82870;BME280;72645;47.136;15.420;2023-11-21T07:13:21;96483.82;;;7.73;71.59
82870;BME280;72645;47.136;15.420;2023-11-21T07:15:51;96480.11;;;7.80;71.59
82870;BME280;72645;47.136;15.420;2023-11-21T07:18:23;96483.54;;;7.88;71.32
82870;BME280;72645;47.136;15.420;2023-11-21T07:20:54;96488.77;;;7.96;71.40
82870;BME280;72645;47.136;15.420;2023-11-21T07:23:25;96489.02;;;7.99;71.41
82870;BME280;72645;47.136;15.420;2023-11-21T07:25:56;96491.80;;;8.01;71.26
82870;BME280;72645;47.136;15.420;2023-11-21T07:28:27;96489.08;;;7.98;71.39
82870;BME280;72645;47.136;15.420;2023-11-21T07:30:57;96492.23;;;7.94;71.67
82870;BME280;72645;47.136;15.420;2023-11-21T07:33:29;96491.67;;;7.87;71.86
82870;BME280;72645;47.136;15.420;2023-11-21T07:36:00;96495.05;;;7.82;71.76
82870;BME280;72645;47.136;15.420;2023-11-21T07:38:31;96493.41;;;7.81;71.96
82870;BME280;72645;47.136;15.420;2023-11-21T07:41:02;96490.98;;;7.83;71.94
82870;BME280;72645;47.136;15.420;2023-11-21T07:43:39;96488.09;;;7.90;71.70
82870;BME280;72645;47.136;15.420;2023-11-21T07:46:10;96485.61;;;8.02;73.56
82870;BME280;72645;47.136;15.420;2023-11-21T07:48:42;96486.48;;;8.42;78.56
82870;BME280;72645;47.136;15.420;2023-11-21T07:51:13;96487.64;;;8.76;76.15
82870;BME280;72645;47.136;15.420;2023-11-21T07:53:44;96487.54;;;8.96;74.62
82870;BME280;72645;47.136;15.420;2023-11-21T07:56:14;96488.14;;;9.08;73.57
82870;BME280;72645;47.136;15.420;2023-11-21T07:58:45;96492.73;;;9.14;72.29
82870;BME280;72645;47.136;15.420;2023-11-21T08:01:16;96490.20;;;9.13;71.60
82870;BME280;72645;47.136;15.420;2023-11-21T08:03:47;96492.27;;;9.11;71.35
82870;BME280;72645;47.136;15.420;2023-11-21T08:06:21;96495.55;;;9.08;71.09
82870;BME280;72645;47.136;15.420;2023-11-21T08:08:52;96496.40;;;9.04;70.98
82870;BME280;72645;47.136;15.420;2023-11-21T08:11:23;96495.45;;;9.01;71.20
82870;BME280;72645;47.136;15.420;2023-11-21T08:13:53;96490.83;;;9.00;71.00
82870;BME280;72645;47.136;15.420;2023-11-21T08:16:24;96483.77;;;9.03;70.84
82870;BME280;72645;47.136;15.420;2023-11-21T08:18:55;96481.17;;;9.07;70.77
82870;BME280;72645;47.136;15.420;2023-11-21T08:21:26;96480.18;;;9.10;70.78
82870;BME280;72645;47.136;15.420;2023-11-21T08:23:58;96481.50;;;9.12;70.86
82870;BME280;72645;47.136;15.420;2023-11-21T08:26:29;96477.47;;;9.14;70.85
82870;BME280;72645;47.136;15.420;2023-11-21T08:29:00;96478.27;;;9.15;70.82
82870;BME280;72645;47.136;15.420;2023-11-21T08:31:31;96477.66;;;9.14;70.88
82870;BME280;72645;47.136;15.420;2023-11-21T08:34:02;96471.36;;;9.11;70.93
82870;BME280;72645;47.136;15.420;2023-11-21T08:36:33;96470.42;;;9.09;71.33
82870;BME280;72645;47.136;15.420;2023-11-21T08:39:04;96467.58;;;9.10;71.30
82870;BME280;72645;47.136;15.420;2023-11-21T08:41:35;96464.15;;;9.15;71.45
82870;BME280;72645;47.136;15.420;2023-11-21T08:44:07;96463.10;;;9.23;71.33
82870;BME280;72645;47.136;15.420;2023-11-21T08:46:38;96470.65;;;9.30;71.32
82870;BME280;72645;47.136;15.420;2023-11-21T08:49:11;96465.35;;;9.36;71.26
82870;BME280;72645;47.136;15.420;2023-11-21T08:51:43;96464.04;;;9.39;71.48
82870;BME280;72645;47.136;15.420;2023-11-21T08:54:14;96463.13;;;9.41;71.58
82870;BME280;72645;47.136;15.420;2023-11-21T08:56:46;96459.05;;;9.41;71.50
82870;BME280;72645;47.136;15.420;2023-11-21T08:59:16;96463.77;;;9.45;71.41
82870;BME280;72645;47.136;15.420;2023-11-21T09:01:49;96467.30;;;9.45;71.49
82870;BME280;72645;47.136;15.420;2023-11-21T09:04:20;96460.94;;;9.42;71.61
82870;BME280;72645;47.136;15.420;2023-11-21T09:06:51;96467.45;;;9.43;71.54
82870;BME280;72645;47.136;15.420;2023-11-21T09:09:21;96462.48;;;9.46;71.54
82870;BME280;72645;47.136;15.420;2023-11-21T09:11:54;96463.16;;;9.52;71.62
82870;BME280;72645;47.136;15.420;2023-11-21T09:14:25;96464.46;;;9.58;71.46
82870;BME280;72645;47.136;15.420;2023-11-21T09:16:55;96466.30;;;9.63;71.37
82870;BME280;72645;47.136;15.420;2023-11-21T09:19:26;96463.44;;;9.67;71.27
82870;BME280;72645;47.136;15.420;2023-11-21T09:21:57;96467.30;;;9.71;71.19
82870;BME280;72645;47.136;15.420;2023-11-21T09:24:28;96465.55;;;9.71;71.41
82870;BME280;72645;47.136;15.420;2023-11-21T09:26:59;96471.83;;;9.67;71.81
82870;BME280;72645;47.136;15.420;2023-11-21T09:29:31;96465.11;;;9.62;71.60
82870;BME280;72645;47.136;15.420;2023-11-21T09:32:02;96469.57;;;9.60;71.35
82870;BME280;72645;47.136;15.420;2023-11-21T09:34:35;96470.28;;;9.60;71.58
82870;BME280;72645;47.136;15.420;2023-11-21T09:37:08;96468.04;;;9.63;71.59
82870;BME280;72645;47.136;15.420;2023-11-21T09:39:39;96466.50;;;9.68;71.53
82870;BME280;72645;47.136;15.420;2023-11-21T09:42:12;96462.07;;;9.74;71.57
82870;BME280;72645;47.136;15.420;2023-11-21T09:44:48;96461.61;;;9.81;71.46
82870;BME280;72645;47.136;15.420;2023-11-21T09:47:25;96458.02;;;9.87;71.36
82870;BME280;72645;47.136;15.420;2023-11-21T09:49:57;96454.14;;;9.91;71.27
82870;BME280;72645;47.136;15.420;2023-11-21T09:52:33;96449.02;;;9.93;71.25
82870;BME280;72645;47.136;15.420;2023-11-21T09:55:09;96445.86;;;9.95;71.31
82870;BME280;72645;47.136;15.420;2023-11-21T09:57:44;96440.64;;;9.95;71.37
82870;BME280;72645;47.136;15.420;2023-11-21T10:00:22;96443.17;;;9.93;71.56
82870;BME280;72645;47.136;15.420;2023-11-21T10:02:53;96443.55;;;9.90;71.90
82870;BME280;72645;47.136;15.420;2023-11-21T10:05:24;96437.79;;;9.92;71.98
82870;BME280;72645;47.136;15.420;2023-11-21T10:07:58;96440.05;;;10.00;71.45
82870;BME280;72645;47.136;15.420;2023-11-21T10:10:29;96435.95;;;10.06;71.24
82870;BME280;72645;47.136;15.420;2023-11-21T10:13:05;96438.36;;;10.10;71.15
82870;BME280;72645;47.136;15.420;2023-11-21T10:15:37;96439.23;;;10.14;71.11
82870;BME280;72645;47.136;15.420;2023-11-21T10:18:08;96437.73;;;10.15;71.26
82870;BME280;72645;47.136;15.420;2023-11-21T10:20:39;96441.05;;;10.15;70.70
82870;BME280;72645;47.136;15.420;2023-11-21T10:23:11;96444.48;;;10.14;70.31
82870;BME280;72645;47.136;15.420;2023-11-21T10:25:42;96442.55;;;10.08;70.12
82870;BME280;72645;47.136;15.420;2023-11-21T10:28:13;96444.35;;;10.06;69.94
82870;BME280;72645;47.136;15.420;2023-11-21T10:30:43;96447.52;;;10.02;69.84
82870;BME280;72645;47.136;15.420;2023-11-21T10:33:14;96449.69;;;9.99;70.02
82870;BME280;72645;47.136;15.420;2023-11-21T10:35:47;96445.92;;;10.00;69.77
82870;BME280;72645;47.136;15.420;2023-11-21T10:38:21;96444.43;;;10.01;70.04
82870;BME280;72645;47.136;15.420;2023-11-21T10:40:53;96446.02;;;10.03;70.23
82870;BME280;72645;47.136;15.420;2023-11-21T10:43:27;96443.86;;;10.05;70.32
82870;BME280;72645;47.136;15.420;2023-11-21T10:46:00;96443.17;;;10.09;70.01
82870;BME280;72645;47.136;15.420;2023-11-21T10:48:31;96440.95;;;10.15;69.86
82870;BME280;72645;47.136;15.420;2023-11-21T10:51:07;96437.17;;;10.17;69.53
82870;BME280;72645;47.136;15.420;2023-11-21T10:53:41;96438.10;;;10.15;69.41
82870;BME280;72645;47.136;15.420;2023-11-21T10:56:15;96440.30;;;10.12;69.73
82870;BME280;72645;47.136;15.420;2023-11-21T10:58:50;96445.23;;;10.06;70.00
82870;BME280;72645;47.136;15.420;2023-11-21T11:01:21;96445.74;;;9.99;69.97
82870;BME280;72645;47.136;15.420;2023-11-21T11:03:55;96447.64;;;9.95;69.64
82870;BME280;72645;47.136;15.420;2023-11-21T11:06:28;96444.72;;;9.95;69.46
82870;BME280;72645;47.136;15.420;2023-11-21T11:08:59;96441.83;;;9.94;69.21
82870;BME280;72645;47.136;15.420;2023-11-21T11:11:32;96440.29;;;9.97;69.11
82870;BME280;72645;47.136;15.420;2023-11-21T11:14:05;96434.85;;;10.03;69.13
82870;BME280;72645;47.136;15.420;2023-11-21T11:16:37;96429.81;;;10.10;68.70
82870;BME280;72645;47.136;15.420;2023-11-21T11:19:10;96429.33;;;10.17;68.86
82870;BME280;72645;47.136;15.420;2023-11-21T11:21:52;96430.98;;;10.23;68.97
82870;BME280;72645;47.136;15.420;2023-11-21T11:24:36;96434.46;;;10.29;68.92
82870;BME280;72645;47.136;15.420;2023-11-21T11:27:20;96437.45;;;10.33;68.71
82870;BME280;72645;47.136;15.420;2023-11-21T11:30:05;96433.42;;;10.34;69.04
82870;BME280;72645;47.136;15.420;2023-11-21T11:32:51;96433.80;;;10.34;68.84
82870;BME280;72645;47.136;15.420;2023-11-21T11:35:29;96435.29;;;10.28;68.72
82870;BME280;72645;47.136;15.420;2023-11-21T11:38:04;96431.70;;;10.20;68.46
82870;BME280;72645;47.136;15.420;2023-11-21T11:40:44;96431.10;;;10.17;68.80
82870;BME280;72645;47.136;15.420;2023-11-21T11:43:26;96427.50;;;10.20;68.83
82870;BME280;72645;47.136;15.420;2023-11-21T11:45:58;96428.04;;;10.27;68.48
82870;BME280;72645;47.136;15.420;2023-11-21T11:48:36;96420.66;;;10.31;68.37
82870;BME280;72645;47.136;15.420;2023-11-21T11:51:12;96420.77;;;10.35;67.96
82870;BME280;72645;47.136;15.420;2023-11-21T11:53:45;96421.03;;;10.37;67.90
82870;BME280;72645;47.136;15.420;2023-11-21T11:56:27;96422.50;;;10.40;68.10
82870;BME280;72645;47.136;15.420;2023-11-21T11:59:01;96424.35;;;10.41;67.92
82870;BME280;72645;47.136;15.420;2023-11-21T12:01:34;96425.56;;;10.41;68.16
82870;BME280;72645;47.136;15.420;2023-11-21T12:04:24;96423.10;;;10.38;68.22
82870;BME280;72645;47.136;15.420;2023-11-21T12:07:04;96421.21;;;10.36;67.99
82870;BME280;72645;47.136;15.420;2023-11-21T12:09:38;96419.33;;;10.37;68.19
82870;BME280;72645;47.136;15.420;2023-11-21T12:12:10;96419.90;;;10.36;67.80
82870;BME280;72645;47.136;15.420;2023-11-21T12:14:41;96416.73;;;10.35;67.81
82870;BME280;72645;47.136;15.420;2023-11-21T12:17:11;96416.08;;;10.41;70.18
82870;BME280;72645;47.136;15.420;2023-11-21T12:19:42;96411.21;;;10.62;70.71
82870;BME280;72645;47.136;15.420;2023-11-21T12:22:13;96411.02;;;10.85;70.90
82870;BME280;72645;47.136;15.420;2023-11-21T12:24:45;96406.02;;;11.12;71.52
82870;BME280;72645;47.136;15.420;2023-11-21T12:27:16;96396.52;;;11.35;69.63
82870;BME280;72645;47.136;15.420;2023-11-21T12:29:47;96396.06;;;11.44;67.67
82870;BME280;72645;47.136;15.420;2023-11-21T12:32:18;96396.67;;;11.42;66.73
82870;BME280;72645;47.136;15.420;2023-11-21T12:34:50;96398.27;;;11.35;66.27
82870;BME280;72645;47.136;15.420;2023-11-21T12:37:21;96394.96;;;11.26;65.88
82870;BME280;72645;47.136;15.420;2023-11-21T12:39:52;96393.50;;;11.18;65.93
82870;BME280;72645;47.136;15.420;2023-11-21T12:42:27;96400.38;;;11.11;65.60
82870;BME280;72645;47.136;15.420;2023-11-21T12:45:18;96399.72;;;11.04;65.57
82870;BME280;72645;47.136;15.420;2023-11-21T12:47:50;96399.36;;;10.95;65.76
82870;BME280;72645;47.136;15.420;2023-11-21T12:50:22;96392.90;;;10.88;65.66
82870;BME280;72645;47.136;15.420;2023-11-21T12:53:00;96390.52;;;10.82;65.80
82870;BME280;72645;47.136;15.420;2023-11-21T12:55:31;96391.09;;;10.76;65.98
82870;BME280;72645;47.136;15.420;2023-11-21T12:58:04;96387.83;;;10.72;65.86
82870;BME280;72645;47.136;15.420;2023-11-21T13:00:40;96383.54;;;10.71;65.85
82870;BME280;72645;47.136;15.420;2023-11-21T13:03:12;96377.29;;;10.71;65.85
82870;BME280;72645;47.136;15.420;2023-11-21T13:05:48;96374.13;;;10.71;65.89
82870;BME280;72645;47.136;15.420;2023-11-21T13:08:23;96369.27;;;10.69;65.64
82870;BME280;72645;47.136;15.420;2023-11-21T13:10:55;96366.40;;;10.68;65.57
82870;BME280;72645;47.136;15.420;2023-11-21T13:13:29;96367.67;;;10.67;65.78
82870;BME280;72645;47.136;15.420;2023-11-21T13:16:02;96364.97;;;10.66;66.06
82870;BME280;72645;47.136;15.420;2023-11-21T13:18:35;96365.79;;;10.65;66.08
82870;BME280;72645;47.136;15.420;2023-11-21T13:21:07;96368.63;;;10.63;66.25
82870;BME280;72645;47.136;15.420;2023-11-21T13:23:42;96361.73;;;10.59;66.15